createdAt,value
2018-07-09T00:00:00.635Z,64.00
2018-07-09T00:02:30.268Z,63.90
2018-07-09T00:04:59.045Z,64.10
2018-07-09T00:07:28.058Z,64.00
2018-07-09T00:09:57.524Z,64.40
2018-07-09T00:12:26.615Z,64.30
2018-07-09T00:14:55.865Z,64.30
2018-07-09T00:17:25.201Z,64.00
2018-07-09T00:19:54.270Z,64.40
2018-07-09T00:22:23.351Z,64.20
2018-07-09T00:24:52.490Z,64.50
2018-07-09T00:27:22.067Z,64.70
2018-07-09T00:29:51.223Z,64.40
2018-07-09T00:32:20.147Z,64.30
2018-07-09T00:34:49.114Z,64.30
2018-07-09T00:37:18.131Z,65.20
2018-07-09T00:39:47.232Z,65.10
2018-07-09T00:42:16.092Z,64.80
2018-07-09T00:44:45.035Z,65.30
2018-07-09T00:47:14.375Z,65.00
2018-07-09T00:49:43.352Z,65.10
2018-07-09T00:52:12.452Z,65.30
2018-07-09T00:54:42.107Z,65.70
2018-07-09T00:57:11.076Z,65.70
2018-07-09T00:59:40.083Z,65.60
2018-07-09T01:02:09.413Z,65.70
2018-07-09T01:04:38.622Z,65.80
2018-07-09T01:07:18.440Z,65.80
2018-07-09T01:09:47.525Z,65.90
2018-07-09T01:12:16.626Z,65.70
2018-07-09T01:14:45.726Z,66.00
2018-07-09T01:17:14.803Z,66.10
2018-07-09T01:19:44.564Z,66.20
2018-07-09T01:22:13.618Z,66.20
2018-07-09T01:24:42.794Z,66.20
2018-07-09T01:27:11.814Z,66.20
2018-07-09T01:29:41.019Z,66.20
2018-07-09T01:32:10.356Z,66.30
2018-07-09T01:34:39.420Z,66.40
2018-07-09T01:37:08.310Z,66.30
2018-07-09T01:39:37.342Z,66.90
2018-07-09T01:42:06.398Z,67.10
2018-07-09T01:44:35.410Z,67.20
2018-07-09T01:47:04.410Z,66.60
2018-07-09T01:49:38.217Z,66.40
2018-07-09T01:52:07.474Z,67.00
2018-07-09T01:54:36.523Z,67.20
2018-07-09T01:57:05.787Z,67.10
2018-07-09T01:59:34.665Z,66.80
2018-07-09T02:02:03.514Z,66.70
2018-07-09T02:04:33.391Z,66.90
2018-07-09T02:07:02.227Z,67.00
2018-07-09T02:09:31.360Z,67.00
2018-07-09T02:12:05.992Z,67.10
2018-07-09T02:17:03.411Z,67.40
2018-07-09T02:19:32.568Z,67.20
2018-07-09T02:22:01.555Z,67.50
2018-07-09T02:24:30.407Z,67.70
2018-07-09T02:26:59.655Z,68.30
2018-07-09T02:29:28.544Z,68.10
2018-07-09T02:31:57.530Z,68.00
2018-07-09T02:34:26.454Z,68.20
2018-07-09T02:36:55.503Z,68.90
2018-07-09T02:39:24.732Z,69.40
2018-07-09T02:41:53.934Z,68.60
2018-07-09T02:44:23.003Z,68.50
2018-07-09T02:46:51.987Z,68.30
2018-07-09T02:49:20.985Z,68.30
2018-07-09T02:54:24.517Z,68.40
2018-07-09T02:56:53.695Z,68.70
2018-07-09T02:59:22.902Z,68.80
2018-07-09T03:01:52.001Z,68.80
2018-07-09T03:04:21.121Z,68.60
2018-07-09T03:06:53.406Z,68.70
2018-07-09T03:09:22.568Z,69.30
2018-07-09T03:11:52.131Z,69.10
2018-07-09T03:14:21.415Z,69.30
2018-07-09T03:16:50.390Z,69.40
2018-07-09T03:19:19.595Z,68.90
2018-07-09T03:21:48.621Z,69.10
2018-07-09T03:24:17.693Z,71.20
2018-07-09T03:26:46.873Z,71.00
2018-07-09T03:29:16.146Z,70.90
2018-07-09T03:31:45.278Z,70.00
2018-07-09T03:34:14.360Z,70.50
2018-07-09T03:36:43.755Z,69.80
2018-07-09T03:41:57.112Z,70.30
2018-07-09T03:44:26.115Z,72.00
2018-07-09T03:46:55.076Z,70.80
2018-07-09T03:49:24.312Z,70.40
2018-07-09T03:51:53.801Z,70.70
2018-07-09T03:54:23.113Z,70.60
2018-07-09T03:56:52.308Z,69.90
2018-07-09T03:59:21.340Z,70.90
2018-07-09T04:01:50.817Z,70.60
2018-07-09T04:04:19.872Z,70.00
2018-07-09T04:06:48.967Z,70.20
2018-07-09T04:09:17.880Z,69.90
2018-07-09T04:11:47.085Z,69.90
2018-07-09T04:14:16.321Z,70.60
2018-07-09T04:16:45.360Z,70.60
2018-07-09T04:19:14.497Z,70.60
2018-07-09T04:21:43.790Z,70.60
2018-07-09T04:24:12.679Z,70.50
2018-07-09T04:26:41.744Z,70.50
2018-07-09T04:29:10.683Z,70.20
2018-07-09T04:31:39.628Z,70.50
2018-07-09T04:34:14.603Z,70.30
2018-07-09T04:36:43.773Z,72.10
2018-07-09T04:39:12.750Z,70.80
2018-07-09T04:41:41.519Z,72.90
2018-07-09T04:44:10.338Z,71.70
2018-07-09T04:46:39.738Z,69.40
2018-07-09T04:49:08.866Z,69.20
2018-07-09T04:51:37.755Z,69.10
2018-07-09T04:54:06.595Z,68.80
2018-07-09T04:56:35.580Z,69.70
2018-07-09T04:59:09.093Z,70.50
2018-07-09T05:01:37.867Z,71.20
2018-07-09T05:04:07.045Z,70.60
2018-07-09T05:06:35.967Z,71.30
2018-07-09T05:09:05.816Z,70.90
2018-07-09T05:11:34.762Z,70.60
2018-07-09T05:14:03.808Z,71.60
2018-07-09T05:16:33.165Z,70.20
2018-07-09T05:19:02.048Z,70.60
2018-07-09T05:21:30.979Z,71.20
2018-07-09T05:23:59.828Z,72.20
2018-07-09T05:26:28.970Z,75.30
2018-07-09T05:31:26.189Z,73.40
2018-07-09T05:33:55.296Z,72.50
2018-07-09T05:36:24.178Z,72.90
2018-07-09T05:38:53.082Z,73.00
2018-07-09T05:41:22.016Z,74.00
2018-07-09T05:43:51.214Z,74.00
2018-07-09T05:48:48.642Z,74.80
2018-07-09T05:51:19.935Z,76.60
2018-07-09T05:53:48.652Z,75.90
2018-07-09T05:56:17.621Z,75.30
2018-07-09T05:58:46.977Z,76.40
2018-07-09T06:01:16.247Z,76.60
2018-07-09T06:03:45.548Z,75.90
2018-07-09T06:06:17.689Z,74.50
2018-07-09T06:08:47.084Z,75.10
2018-07-09T06:13:44.683Z,75.20
2018-07-09T06:16:13.949Z,74.90
2018-07-09T06:21:12.074Z,75.20
2018-07-09T06:23:41.349Z,75.90
2018-07-09T06:26:10.516Z,75.70
2018-07-09T06:28:39.659Z,77.00
2018-07-09T06:31:08.649Z,77.10
2018-07-09T06:33:38.350Z,76.90
2018-07-09T06:36:07.429Z,75.80
2018-07-09T06:38:36.525Z,77.60
2018-07-09T06:41:05.437Z,77.30
2018-07-09T06:43:34.460Z,76.80
2018-07-09T06:46:04.150Z,76.60
2018-07-09T06:48:33.257Z,78.30
2018-07-09T06:51:02.382Z,77.00
2018-07-09T06:53:31.554Z,76.90
2018-07-09T06:56:00.767Z,77.30
2018-07-09T06:58:29.935Z,79.80
2018-07-09T07:00:59.017Z,79.80
2018-07-09T07:05:56.860Z,80.00
2018-07-09T07:08:25.937Z,80.10
2018-07-09T07:10:55.156Z,81.00
2018-07-09T07:13:24.187Z,79.90
2018-07-09T07:15:53.094Z,79.20
2018-07-09T07:20:50.432Z,79.50
2018-07-09T07:23:19.482Z,78.30
2018-07-09T07:25:48.542Z,78.50
2018-07-09T07:30:46.033Z,78.80
2018-07-09T07:33:15.123Z,78.90
2018-07-09T07:35:44.116Z,78.00
2018-07-09T07:38:13.147Z,77.80
2018-07-09T07:40:42.223Z,77.50
2018-07-09T07:43:11.171Z,77.20
2018-07-09T07:45:40.593Z,77.00
2018-07-09T07:48:09.669Z,75.90
2018-07-09T07:50:38.683Z,75.90
2018-07-09T07:53:07.678Z,75.70
2018-07-09T07:55:36.676Z,75.70
2018-07-09T07:58:05.407Z,75.40
2018-07-09T08:00:34.365Z,75.20
2018-07-09T08:03:03.149Z,74.60
2018-07-09T08:05:32.034Z,75.20
2018-07-09T08:08:00.884Z,74.50
2018-07-09T08:10:29.781Z,74.70
2018-07-09T08:13:01.004Z,75.40
2018-07-09T08:15:27.535Z,74.60
2018-07-09T08:17:56.690Z,75.00
2018-07-09T08:20:25.635Z,74.70
2018-07-09T08:22:54.480Z,74.20
2018-07-09T08:25:23.454Z,73.70
2018-07-09T08:27:52.432Z,73.40
2018-07-09T08:30:21.680Z,73.10
2018-07-09T08:32:50.868Z,72.70
2018-07-09T08:35:20.079Z,72.40
2018-07-09T08:37:49.267Z,72.40
2018-07-09T08:40:18.555Z,72.30
2018-07-09T08:42:47.683Z,72.10
2018-07-09T08:45:16.668Z,72.00
2018-07-09T08:47:45.850Z,71.90
2018-07-09T08:50:14.948Z,71.20
2018-07-09T08:52:43.925Z,71.20
2018-07-09T08:57:42.121Z,70.50
2018-07-09T09:00:11.336Z,70.20
2018-07-09T09:02:40.440Z,70.20
2018-07-09T09:05:09.492Z,70.90
2018-07-09T09:07:38.837Z,70.70
2018-07-09T09:10:07.939Z,70.80
2018-07-09T09:12:36.930Z,71.10
2018-07-09T09:15:05.866Z,70.30
2018-07-09T09:17:34.799Z,70.60
2018-07-09T09:20:03.840Z,70.60
2018-07-09T09:22:32.729Z,70.40
2018-07-09T09:25:02.063Z,70.00
2018-07-09T09:27:31.180Z,69.40
2018-07-09T09:30:00.376Z,69.40
2018-07-09T09:32:29.621Z,68.90
2018-07-09T09:34:58.513Z,69.10
2018-07-09T09:37:27.589Z,68.60
2018-07-09T09:39:56.652Z,68.30
2018-07-09T09:42:25.806Z,68.30
2018-07-09T09:44:54.674Z,67.20
2018-07-09T09:47:23.501Z,66.40
2018-07-09T09:49:52.363Z,66.10
2018-07-09T09:52:21.426Z,65.20
2018-07-09T09:54:50.523Z,65.50
2018-07-09T09:57:19.378Z,66.00
2018-07-09T09:59:48.506Z,65.50
2018-07-09T10:02:17.473Z,65.60
2018-07-09T10:04:46.288Z,65.40
2018-07-09T10:07:15.276Z,65.40
2018-07-09T10:09:44.021Z,65.40
2018-07-09T10:12:12.923Z,65.60
2018-07-09T10:14:41.927Z,65.40
2018-07-09T10:17:10.922Z,65.10
2018-07-09T10:19:39.909Z,65.70
2018-07-09T10:22:08.782Z,65.30
2018-07-09T10:24:37.879Z,65.20
2018-07-09T10:27:06.789Z,65.50
2018-07-09T10:29:35.617Z,65.40
2018-07-09T10:32:04.606Z,65.00
2018-07-09T10:34:33.451Z,64.40
2018-07-09T10:37:02.611Z,64.60
2018-07-09T10:39:31.581Z,63.60
2018-07-09T10:42:00.272Z,63.40
2018-07-09T10:46:57.595Z,64.20
2018-07-09T10:49:26.760Z,64.30
2018-07-09T10:51:55.989Z,64.00
2018-07-09T10:54:24.989Z,63.30
2018-07-09T10:56:54.105Z,64.10
2018-07-09T10:59:23.432Z,64.20
2018-07-09T11:01:52.580Z,63.70
2018-07-09T11:04:21.670Z,64.00
2018-07-09T11:06:50.578Z,63.90
2018-07-09T11:09:19.891Z,63.50
2018-07-09T11:11:48.760Z,63.50
2018-07-09T11:14:17.859Z,62.70
2018-07-09T11:16:46.658Z,62.20
2018-07-09T11:19:15.642Z,62.70
2018-07-09T11:21:44.537Z,62.50
2018-07-09T11:24:13.497Z,62.80
2018-07-09T11:26:42.630Z,62.20
2018-07-09T11:29:11.417Z,62.30
2018-07-09T11:31:40.295Z,61.90
2018-07-09T11:34:09.236Z,61.70
2018-07-09T11:36:38.173Z,61.60
2018-07-09T11:39:07.289Z,61.50
2018-07-09T11:41:42.003Z,61.10
2018-07-09T11:44:10.944Z,60.80
2018-07-09T11:46:39.699Z,59.70
2018-07-09T11:49:08.829Z,59.90
2018-07-09T11:51:37.703Z,59.90
2018-07-09T11:54:06.830Z,59.70
2018-07-09T11:56:35.664Z,59.60
2018-07-09T11:59:04.573Z,59.30
2018-07-09T12:01:33.441Z,58.90
2018-07-09T12:04:02.517Z,59.20
2018-07-09T12:06:31.324Z,59.10
2018-07-09T12:09:00.682Z,58.90
2018-07-09T12:11:29.913Z,58.90
2018-07-09T12:13:58.818Z,59.20
2018-07-09T12:16:27.835Z,58.50
2018-07-09T12:18:56.716Z,58.30
2018-07-09T12:21:25.593Z,58.50
2018-07-09T12:24:02.399Z,57.60
2018-07-09T12:26:31.371Z,56.70
2018-07-09T12:29:00.410Z,55.80
2018-07-09T12:31:29.481Z,55.80
2018-07-09T12:33:58.370Z,54.50
2018-07-09T12:36:27.291Z,54.70
2018-07-09T12:38:56.298Z,55.90
2018-07-09T12:41:25.329Z,56.30
2018-07-09T12:43:54.437Z,55.50
2018-07-09T12:46:23.846Z,55.60
2018-07-09T12:48:52.818Z,56.30
2018-07-09T12:51:21.972Z,55.70
2018-07-09T12:53:50.940Z,56.20
2018-07-09T12:56:20.045Z,55.30
2018-07-09T12:58:48.934Z,55.50
2018-07-09T13:01:17.791Z,55.90
2018-07-09T13:03:46.705Z,55.40
2018-07-09T13:06:15.697Z,56.40
2018-07-09T13:08:45.610Z,56.00
2018-07-09T13:11:14.683Z,56.40
2018-07-09T13:13:43.671Z,56.50
2018-07-09T13:16:12.789Z,56.50
2018-07-09T13:18:41.707Z,56.80
2018-07-09T13:21:10.782Z,56.90
2018-07-09T13:23:39.863Z,57.30
2018-07-09T13:26:08.874Z,56.40
2018-07-09T13:28:37.757Z,57.90
2018-07-09T13:31:06.933Z,56.60
2018-07-09T13:33:35.910Z,56.40
2018-07-09T13:36:05.236Z,56.40
2018-07-09T13:38:34.419Z,56.60
2018-07-09T13:41:03.874Z,56.00
2018-07-09T13:43:33.114Z,55.40
2018-07-09T13:46:02.460Z,56.10
2018-07-09T13:48:31.577Z,55.50
2018-07-09T13:51:00.570Z,56.40
2018-07-09T13:53:29.518Z,57.10
2018-07-09T13:55:58.542Z,56.70
2018-07-09T13:58:28.351Z,56.60
2018-07-09T14:00:57.329Z,56.60
2018-07-09T14:03:26.561Z,56.30
2018-07-09T14:05:55.518Z,56.90
2018-07-09T14:08:24.611Z,57.80
2018-07-09T14:10:53.625Z,57.80
2018-07-09T14:13:22.312Z,57.50
2018-07-09T14:15:51.618Z,57.90
2018-07-09T14:18:20.715Z,58.10
2018-07-09T14:20:49.732Z,57.80
2018-07-09T14:23:19.681Z,58.30
2018-07-09T14:25:48.685Z,58.40
2018-07-09T14:28:17.747Z,59.10
2018-07-09T14:30:46.903Z,59.70
2018-07-09T14:33:15.863Z,59.50
2018-07-09T14:35:44.896Z,59.70
2018-07-09T14:38:30.190Z,58.70
2018-07-09T14:43:27.526Z,60.80
2018-07-09T14:45:56.545Z,61.60
2018-07-09T14:48:25.549Z,61.10
2018-07-09T14:50:54.374Z,60.90
2018-07-09T14:53:23.159Z,60.90
2018-07-09T14:55:52.367Z,61.40
2018-07-09T14:58:21.400Z,61.40
2018-07-09T15:00:50.301Z,61.60
2018-07-09T15:03:19.474Z,62.10
2018-07-09T15:05:48.578Z,61.30
2018-07-09T15:08:17.603Z,61.30
2018-07-09T15:10:46.489Z,61.20
2018-07-09T15:13:15.449Z,60.90
2018-07-09T15:15:44.615Z,60.70
2018-07-09T15:18:13.743Z,60.20
2018-07-09T15:20:42.627Z,59.90
2018-07-09T15:23:11.684Z,60.10
2018-07-09T15:25:40.625Z,59.60
2018-07-09T15:28:09.677Z,60.20
2018-07-09T15:30:44.798Z,60.60
2018-07-09T15:33:13.680Z,59.70
2018-07-09T15:35:42.731Z,59.90
2018-07-09T15:38:12.151Z,58.70
2018-07-09T15:40:40.838Z,59.00
2018-07-09T15:43:09.740Z,59.10
2018-07-09T15:45:38.831Z,58.00
2018-07-09T15:48:07.816Z,58.60
2018-07-09T15:50:36.806Z,58.20
2018-07-09T15:53:05.808Z,58.70
2018-07-09T15:55:34.572Z,58.50
2018-07-09T15:58:04.889Z,58.10
2018-07-09T16:00:33.938Z,58.40
2018-07-09T16:03:05.218Z,58.50
2018-07-09T16:05:34.379Z,58.30
2018-07-09T16:08:03.302Z,58.10
2018-07-09T16:10:33.507Z,57.50
2018-07-09T16:15:31.823Z,58.20
2018-07-09T16:18:00.894Z,58.40
2018-07-09T16:20:43.913Z,58.80
2018-07-09T16:23:13.203Z,58.90
2018-07-09T16:25:42.323Z,59.10
2018-07-09T16:28:12.653Z,58.40
2018-07-09T16:30:52.724Z,58.60
2018-07-09T16:33:21.906Z,57.60
2018-07-09T16:35:51.043Z,57.90
2018-07-09T16:38:20.586Z,57.60
2018-07-09T16:40:49.730Z,57.50
2018-07-09T16:43:18.917Z,58.40
2018-07-09T16:45:47.962Z,57.20
2018-07-09T16:48:17.009Z,56.80
2018-07-09T16:50:46.104Z,56.70
2018-07-09T16:53:15.304Z,57.00
2018-07-09T16:55:44.462Z,56.80
2018-07-09T16:58:13.556Z,57.60
2018-07-09T17:00:42.851Z,57.40
2018-07-09T17:03:12.340Z,57.20
2018-07-09T17:05:54.993Z,57.20
2018-07-09T17:08:24.315Z,57.40
2018-07-09T17:10:53.379Z,57.90
2018-07-09T17:15:51.159Z,57.30
2018-07-09T17:18:20.368Z,58.00
2018-07-09T17:20:49.453Z,58.00
2018-07-09T17:23:18.689Z,57.50
2018-07-09T17:25:47.768Z,57.00
2018-07-09T17:28:21.797Z,56.90
2018-07-09T17:30:50.999Z,56.90
2018-07-09T17:33:22.116Z,57.50
2018-07-09T17:35:51.317Z,57.50
2018-07-09T17:38:25.717Z,57.80
2018-07-09T17:40:54.492Z,57.90
2018-07-09T17:43:23.531Z,58.10
2018-07-09T17:45:52.754Z,57.90
2018-07-09T17:48:29.894Z,57.20
2018-07-09T17:50:58.981Z,57.40
2018-07-09T17:53:28.410Z,58.50
2018-07-09T17:55:57.562Z,58.20
2018-07-09T17:58:26.890Z,58.40
2018-07-09T18:00:55.986Z,58.20
2018-07-09T18:03:26.383Z,58.50
2018-07-09T18:05:55.527Z,58.50
2018-07-09T18:08:24.552Z,58.30
2018-07-09T18:10:53.630Z,58.70
2018-07-09T18:13:22.826Z,58.80
2018-07-09T18:15:52.256Z,58.80
2018-07-09T18:18:21.416Z,59.00
2018-07-09T18:20:51.536Z,59.50
2018-07-09T18:23:20.861Z,59.60
2018-07-09T18:25:50.475Z,59.40
2018-07-09T18:28:33.226Z,59.60
2018-07-09T18:31:03.216Z,60.20
2018-07-09T18:33:35.917Z,60.40
2018-07-09T18:36:05.735Z,60.30
2018-07-09T18:38:35.521Z,60.40
2018-07-09T18:43:36.105Z,61.10
2018-07-09T18:46:06.441Z,61.10
2018-07-09T18:48:36.624Z,60.90
2018-07-09T18:51:06.823Z,60.90
2018-07-09T18:53:37.644Z,60.90
2018-07-09T18:56:08.634Z,60.70
2018-07-09T18:58:38.715Z,60.90
2018-07-09T19:01:09.359Z,60.90
2018-07-09T19:03:40.040Z,61.10
2018-07-09T19:06:52.285Z,61.50
2018-07-09T19:09:24.106Z,61.70
2018-07-09T19:11:55.626Z,61.30
2018-07-09T19:14:30.974Z,61.10
2018-07-09T19:18:18.972Z,60.90
2018-07-09T19:23:53.461Z,62.70
2018-07-09T19:26:23.004Z,62.40
2018-07-09T19:28:52.080Z,62.70
2018-07-09T19:31:20.821Z,63.20
2018-07-09T19:33:49.918Z,62.60
2018-07-09T19:36:41.960Z,62.50
2018-07-09T19:39:11.163Z,63.30
2018-07-09T19:41:39.632Z,63.10
2018-07-09T19:44:07.563Z,63.10
2018-07-09T19:46:35.636Z,62.70
2018-07-09T19:49:03.403Z,62.70
2018-07-09T19:51:31.164Z,63.60
2018-07-09T19:53:59.249Z,63.60
2018-07-09T19:56:27.002Z,64.80
2018-07-09T20:01:48.643Z,65.30
2018-07-09T20:04:16.429Z,67.00
2018-07-09T20:06:44.086Z,65.60
2018-07-09T20:09:16.961Z,65.60
2018-07-09T20:11:49.752Z,64.80
2018-07-09T20:14:22.437Z,64.90
2018-07-09T20:16:55.202Z,65.10
2018-07-09T20:19:23.727Z,65.50
2018-07-09T20:21:51.754Z,66.90
2018-07-09T20:24:19.328Z,66.50
2018-07-09T20:26:47.182Z,66.80
2018-07-09T20:29:14.749Z,65.80
2018-07-09T20:31:42.233Z,65.80
2018-07-09T20:34:09.975Z,65.70
2018-07-09T20:36:37.428Z,66.70
2018-07-09T20:39:06.157Z,66.30
2018-07-09T20:41:33.839Z,66.00
2018-07-09T20:44:01.829Z,66.40
2018-07-09T20:46:29.358Z,66.80
2018-07-09T20:48:57.701Z,67.60
2018-07-09T20:51:25.710Z,66.80
2018-07-09T20:53:54.241Z,66.70
2018-07-09T20:56:21.900Z,66.60
2018-07-09T20:58:49.960Z,67.00
2018-07-09T21:01:17.627Z,68.00
2018-07-09T21:03:45.725Z,68.90
2018-07-09T21:06:13.236Z,68.90
2018-07-09T21:08:41.439Z,68.90
2018-07-09T21:11:09.127Z,69.10
2018-07-09T21:13:36.781Z,69.10
2018-07-09T21:16:04.437Z,68.90
2018-07-09T21:18:31.740Z,68.30
2018-07-09T21:20:59.502Z,68.20
2018-07-09T21:23:27.103Z,69.50
2018-07-09T21:25:57.904Z,69.60
2018-07-09T21:28:25.422Z,69.90
2018-07-09T21:30:53.327Z,69.70
2018-07-09T21:33:20.889Z,70.10
2018-07-09T21:35:48.691Z,71.00
2018-07-09T21:38:16.471Z,70.20
2018-07-09T21:40:43.905Z,69.30
2018-07-09T21:43:11.411Z,69.70
2018-07-09T21:45:39.136Z,70.90
2018-07-09T21:48:10.558Z,70.90
2018-07-09T21:50:34.278Z,70.30
2018-07-09T21:53:01.903Z,69.50
2018-07-09T21:55:29.396Z,70.10
2018-07-09T21:58:03.694Z,69.60
2018-07-09T22:00:31.377Z,69.10
2018-07-09T22:02:58.752Z,68.70
2018-07-09T22:05:26.376Z,68.20
2018-07-09T22:07:53.881Z,68.50
2018-07-09T22:10:21.509Z,68.70
2018-07-09T22:12:49.065Z,68.90
2018-07-09T22:15:16.614Z,69.10
2018-07-09T22:17:44.389Z,68.90
2018-07-09T22:20:31.396Z,69.10
2018-07-09T22:22:58.871Z,69.50
2018-07-09T22:25:26.515Z,69.60
2018-07-09T22:27:54.075Z,69.30
2018-07-09T22:30:28.221Z,69.40
2018-07-09T22:32:57.375Z,69.50
2018-07-09T22:35:26.320Z,70.30
2018-07-09T22:37:55.341Z,70.90
2018-07-09T22:40:24.380Z,71.20
2018-07-09T22:42:53.673Z,71.20
2018-07-09T22:45:22.963Z,71.20
2018-07-09T22:47:51.823Z,71.00
2018-07-09T22:50:21.052Z,71.50
2018-07-09T22:52:50.165Z,71.80
2018-07-09T22:55:30.004Z,71.90
2018-07-09T22:57:59.095Z,72.80
2018-07-09T23:00:28.305Z,72.70
2018-07-09T23:03:15.021Z,72.50
2018-07-09T23:05:44.650Z,72.60
2018-07-09T23:08:13.846Z,72.60
2018-07-09T23:11:51.842Z,72.50
2018-07-09T23:14:33.329Z,72.40
2018-07-09T23:17:14.439Z,72.50
2018-07-09T23:22:00.308Z,73.90
2018-07-09T23:24:27.977Z,71.80
2018-07-09T23:26:56.130Z,71.80
2018-07-09T23:31:51.145Z,71.60
2018-07-09T23:36:46.781Z,72.10
2018-07-09T23:39:14.777Z,72.20
2018-07-09T23:41:42.224Z,73.10
2018-07-09T23:44:09.783Z,72.80
2018-07-09T23:46:37.245Z,72.80
2018-07-09T23:49:04.799Z,73.10
2018-07-09T23:51:32.346Z,73.10
2018-07-09T23:54:08.418Z,73.00
2018-07-09T23:59:10.998Z,73.70
